sensor_id;sensor_type;location;lat;lon;timestamp;P1;durP1;ratioP1;P2;durP2;ratioP2
9970;SDS011;5026;51.494;11.974;2023-04-30T00:00:23;8.93;;;5.63;;
9970;SDS011;5026;51.494;11.974;2023-04-30T00:02:51;9.30;;;5.63;;
9970;SDS011;5026;51.494;11.974;2023-04-30T00:05:18;10.50;;;5.70;;
9970;SDS011;5026;51.494;11.974;2023-04-30T00:07:45;9.67;;;5.20;;
9970;SDS011;5026;51.494;11.974;2023-04-30T00:10:12;12.30;;;6.20;;
9970;SDS011;5026;51.494;11.974;2023-04-30T00:12:39;7.30;;;4.93;;
9970;SDS011;5026;51.494;11.974;2023-04-30T00:15:08;5.97;;;4.87;;
9970;SDS011;5026;51.494;11.974;2023-04-30T00:17:35;6.77;;;4.83;;
9970;SDS011;5026;51.494;11.974;2023-04-30T00:20:02;7.60;;;5.10;;
9970;SDS011;5026;51.494;11.974;2023-04-30T00:22:30;6.20;;;4.93;;
9970;SDS011;5026;51.494;11.974;2023-04-30T00:24:57;7.77;;;4.83;;
9970;SDS011;5026;51.494;11.974;2023-04-30T00:27:24;6.37;;;4.83;;
9970;SDS011;5026;51.494;11.974;2023-04-30T00:29:51;7.60;;;4.73;;
9970;SDS011;5026;51.494;11.974;2023-04-30T00:32:20;8.43;;;5.03;;
9970;SDS011;5026;51.494;11.974;2023-04-30T00:34:47;7.63;;;5.23;;
9970;SDS011;5026;51.494;11.974;2023-04-30T00:37:14;7.37;;;4.87;;
9970;SDS011;5026;51.494;11.974;2023-04-30T00:39:40;6.37;;;4.90;;
9970;SDS011;5026;51.494;11.974;2023-04-30T00:42:08;9.17;;;5.20;;
9970;SDS011;5026;51.494;11.974;2023-04-30T00:44:35;9.10;;;4.70;;
9970;SDS011;5026;51.494;11.974;2023-04-30T00:47:02;7.07;;;5.17;;
9970;SDS011;5026;51.494;11.974;2023-04-30T00:49:30;10.67;;;4.87;;
9970;SDS011;5026;51.494;11.974;2023-04-30T00:51:57;7.53;;;5.33;;
9970;SDS011;5026;51.494;11.974;2023-04-30T00:54:25;9.60;;;4.90;;
9970;SDS011;5026;51.494;11.974;2023-04-30T00:56:52;6.63;;;5.27;;
9970;SDS011;5026;51.494;11.974;2023-04-30T00:59:19;6.97;;;4.90;;
9970;SDS011;5026;51.494;11.974;2023-04-30T01:01:46;8.97;;;4.63;;
9970;SDS011;5026;51.494;11.974;2023-04-30T01:04:13;10.13;;;5.00;;
9970;SDS011;5026;51.494;11.974;2023-04-30T01:06:41;8.17;;;4.47;;
9970;SDS011;5026;51.494;11.974;2023-04-30T01:09:08;9.07;;;4.80;;
9970;SDS011;5026;51.494;11.974;2023-04-30T01:11:38;5.37;;;4.47;;
9970;SDS011;5026;51.494;11.974;2023-04-30T01:14:16;6.70;;;4.30;;
9970;SDS011;5026;51.494;11.974;2023-04-30T01:16:51;8.73;;;4.70;;
9970;SDS011;5026;51.494;11.974;2023-04-30T01:19:33;8.07;;;4.63;;
9970;SDS011;5026;51.494;11.974;2023-04-30T01:22:04;6.93;;;4.83;;
9970;SDS011;5026;51.494;11.974;2023-04-30T01:27:31;7.47;;;4.57;;
9970;SDS011;5026;51.494;11.974;2023-04-30T01:30:25;6.83;;;4.83;;
9970;SDS011;5026;51.494;11.974;2023-04-30T01:32:52;10.53;;;5.57;;
9970;SDS011;5026;51.494;11.974;2023-04-30T01:35:19;12.30;;;4.73;;
9970;SDS011;5026;51.494;11.974;2023-04-30T01:37:51;8.87;;;4.73;;
9970;SDS011;5026;51.494;11.974;2023-04-30T01:40:26;8.73;;;4.50;;
9970;SDS011;5026;51.494;11.974;2023-04-30T01:43:07;6.20;;;4.50;;
9970;SDS011;5026;51.494;11.974;2023-04-30T01:45:48;8.90;;;5.13;;
9970;SDS011;5026;51.494;11.974;2023-04-30T01:48:34;9.30;;;5.13;;
9970;SDS011;5026;51.494;11.974;2023-04-30T01:51:12;8.43;;;4.73;;
9970;SDS011;5026;51.494;11.974;2023-04-30T01:53:44;7.57;;;5.07;;
9970;SDS011;5026;51.494;11.974;2023-04-30T01:56:15;8.80;;;5.13;;
9970;SDS011;5026;51.494;11.974;2023-04-30T01:58:46;12.07;;;5.37;;
9970;SDS011;5026;51.494;11.974;2023-04-30T02:01:26;8.37;;;4.90;;
9970;SDS011;5026;51.494;11.974;2023-04-30T02:03:53;10.27;;;5.73;;
9970;SDS011;5026;51.494;11.974;2023-04-30T02:06:20;11.83;;;5.33;;
9970;SDS011;5026;51.494;11.974;2023-04-30T02:08:52;8.80;;;5.23;;
9970;SDS011;5026;51.494;11.974;2023-04-30T02:11:19;9.23;;;5.47;;
9970;SDS011;5026;51.494;11.974;2023-04-30T02:13:48;8.07;;;5.80;;
9970;SDS011;5026;51.494;11.974;2023-04-30T02:16:15;8.63;;;5.87;;
9970;SDS011;5026;51.494;11.974;2023-04-30T02:18:43;9.33;;;5.50;;
9970;SDS011;5026;51.494;11.974;2023-04-30T02:21:10;9.97;;;5.50;;
9970;SDS011;5026;51.494;11.974;2023-04-30T02:23:38;9.93;;;5.60;;
9970;SDS011;5026;51.494;11.974;2023-04-30T02:26:05;10.83;;;4.97;;
9970;SDS011;5026;51.494;11.974;2023-04-30T02:28:32;8.40;;;5.57;;
9970;SDS011;5026;51.494;11.974;2023-04-30T02:31:00;9.03;;;5.27;;
9970;SDS011;5026;51.494;11.974;2023-04-30T02:33:26;8.83;;;5.43;;
9970;SDS011;5026;51.494;11.974;2023-04-30T02:35:55;8.27;;;5.50;;
9970;SDS011;5026;51.494;11.974;2023-04-30T02:38:23;10.27;;;5.70;;
9970;SDS011;5026;51.494;11.974;2023-04-30T02:40:50;13.63;;;6.17;;
9970;SDS011;5026;51.494;11.974;2023-04-30T02:43:17;10.90;;;5.80;;
9970;SDS011;5026;51.494;11.974;2023-04-30T02:45:44;15.17;;;6.37;;
9970;SDS011;5026;51.494;11.974;2023-04-30T02:48:10;15.70;;;5.90;;
9970;SDS011;5026;51.494;11.974;2023-04-30T02:50:37;11.90;;;6.03;;
9970;SDS011;5026;51.494;11.974;2023-04-30T02:53:05;8.53;;;5.67;;
9970;SDS011;5026;51.494;11.974;2023-04-30T02:55:32;11.47;;;5.63;;
9970;SDS011;5026;51.494;11.974;2023-04-30T02:57:59;11.40;;;5.63;;
9970;SDS011;5026;51.494;11.974;2023-04-30T03:00:26;11.80;;;5.80;;
9970;SDS011;5026;51.494;11.974;2023-04-30T03:02:53;12.90;;;5.80;;
9970;SDS011;5026;51.494;11.974;2023-04-30T03:05:20;13.87;;;6.40;;
9970;SDS011;5026;51.494;11.974;2023-04-30T03:07:48;8.50;;;5.73;;
9970;SDS011;5026;51.494;11.974;2023-04-30T03:10:16;11.33;;;5.90;;
9970;SDS011;5026;51.494;11.974;2023-04-30T03:12:44;11.60;;;6.23;;
9970;SDS011;5026;51.494;11.974;2023-04-30T03:15:11;9.30;;;5.93;;
9970;SDS011;5026;51.494;11.974;2023-04-30T03:17:38;8.43;;;5.50;;
9970;SDS011;5026;51.494;11.974;2023-04-30T03:20:05;10.73;;;6.10;;
9970;SDS011;5026;51.494;11.974;2023-04-30T03:22:33;11.73;;;6.23;;
9970;SDS011;5026;51.494;11.974;2023-04-30T03:25:00;10.10;;;6.97;;
9970;SDS011;5026;51.494;11.974;2023-04-30T03:27:28;10.17;;;6.67;;
9970;SDS011;5026;51.494;11.974;2023-04-30T03:29:55;9.63;;;6.13;;
9970;SDS011;5026;51.494;11.974;2023-04-30T03:32:22;8.37;;;5.97;;
9970;SDS011;5026;51.494;11.974;2023-04-30T03:34:49;12.27;;;6.20;;
9970;SDS011;5026;51.494;11.974;2023-04-30T03:37:16;10.07;;;6.10;;
9970;SDS011;5026;51.494;11.974;2023-04-30T03:39:43;8.17;;;5.33;;
9970;SDS011;5026;51.494;11.974;2023-04-30T03:42:10;8.10;;;5.30;;
9970;SDS011;5026;51.494;11.974;2023-04-30T03:44:38;10.93;;;6.53;;
9970;SDS011;5026;51.494;11.974;2023-04-30T03:47:05;9.10;;;5.73;;
9970;SDS011;5026;51.494;11.974;2023-04-30T03:49:32;12.87;;;6.60;;
9970;SDS011;5026;51.494;11.974;2023-04-30T03:51:59;10.90;;;6.07;;
9970;SDS011;5026;51.494;11.974;2023-04-30T03:54:26;10.30;;;6.10;;
9970;SDS011;5026;51.494;11.974;2023-04-30T03:56:53;9.17;;;6.10;;
9970;SDS011;5026;51.494;11.974;2023-04-30T03:59:20;12.63;;;6.10;;
9970;SDS011;5026;51.494;11.974;2023-04-30T04:01:49;11.67;;;6.17;;
9970;SDS011;5026;51.494;11.974;2023-04-30T04:04:16;9.33;;;5.57;;
9970;SDS011;5026;51.494;11.974;2023-04-30T04:06:43;11.93;;;5.83;;
9970;SDS011;5026;51.494;11.974;2023-04-30T04:09:10;12.43;;;6.27;;
9970;SDS011;5026;51.494;11.974;2023-04-30T04:11:37;12.33;;;6.20;;
9970;SDS011;5026;51.494;11.974;2023-04-30T04:14:04;9.47;;;6.27;;
9970;SDS011;5026;51.494;11.974;2023-04-30T04:16:31;10.23;;;5.50;;
9970;SDS011;5026;51.494;11.974;2023-04-30T04:18:59;8.77;;;5.77;;
9970;SDS011;5026;51.494;11.974;2023-04-30T04:21:26;12.53;;;6.00;;
9970;SDS011;5026;51.494;11.974;2023-04-30T04:23:53;7.90;;;5.27;;
9970;SDS011;5026;51.494;11.974;2023-04-30T04:26:20;8.10;;;5.47;;
9970;SDS011;5026;51.494;11.974;2023-04-30T04:28:49;10.80;;;5.70;;
9970;SDS011;5026;51.494;11.974;2023-04-30T04:31:16;11.03;;;6.13;;
9970;SDS011;5026;51.494;11.974;2023-04-30T04:33:46;10.57;;;6.13;;
9970;SDS011;5026;51.494;11.974;2023-04-30T04:36:14;13.63;;;5.30;;
9970;SDS011;5026;51.494;11.974;2023-04-30T04:38:41;11.47;;;5.33;;
9970;SDS011;5026;51.494;11.974;2023-04-30T04:41:08;7.93;;;4.83;;
9970;SDS011;5026;51.494;11.974;2023-04-30T04:43:35;11.27;;;5.63;;
9970;SDS011;5026;51.494;11.974;2023-04-30T04:46:02;10.73;;;5.37;;
9970;SDS011;5026;51.494;11.974;2023-04-30T04:48:29;11.83;;;5.70;;
9970;SDS011;5026;51.494;11.974;2023-04-30T04:50:56;5.93;;;4.70;;
9970;SDS011;5026;51.494;11.974;2023-04-30T04:53:24;9.40;;;5.63;;
9970;SDS011;5026;51.494;11.974;2023-04-30T04:55:51;8.90;;;4.83;;
9970;SDS011;5026;51.494;11.974;2023-04-30T04:58:19;10.40;;;4.67;;
9970;SDS011;5026;51.494;11.974;2023-04-30T05:00:45;7.57;;;4.40;;
9970;SDS011;5026;51.494;11.974;2023-04-30T05:03:12;8.97;;;4.33;;
9970;SDS011;5026;51.494;11.974;2023-04-30T05:05:39;9.13;;;4.30;;
9970;SDS011;5026;51.494;11.974;2023-04-30T05:08:06;8.37;;;4.00;;
9970;SDS011;5026;51.494;11.974;2023-04-30T05:10:35;9.83;;;3.80;;
9970;SDS011;5026;51.494;11.974;2023-04-30T05:13:02;8.30;;;4.17;;
9970;SDS011;5026;51.494;11.974;2023-04-30T05:15:29;8.73;;;3.87;;
9970;SDS011;5026;51.494;11.974;2023-04-30T05:17:55;9.00;;;3.90;;
9970;SDS011;5026;51.494;11.974;2023-04-30T05:20:22;7.07;;;4.20;;
9970;SDS011;5026;51.494;11.974;2023-04-30T05:22:49;11.33;;;4.37;;
9970;SDS011;5026;51.494;11.974;2023-04-30T05:25:16;4.93;;;3.07;;
9970;SDS011;5026;51.494;11.974;2023-04-30T05:27:45;8.10;;;2.77;;
9970;SDS011;5026;51.494;11.974;2023-04-30T05:30:11;5.88;;;2.45;;
9970;SDS011;5026;51.494;11.974;2023-04-30T05:32:39;5.10;;;2.42;;
9970;SDS011;5026;51.494;11.974;2023-04-30T05:35:07;4.50;;;2.30;;
9970;SDS011;5026;51.494;11.974;2023-04-30T05:37:34;6.90;;;2.13;;
9970;SDS011;5026;51.494;11.974;2023-04-30T05:40:01;7.07;;;2.28;;
9970;SDS011;5026;51.494;11.974;2023-04-30T05:42:30;4.95;;;2.10;;
9970;SDS011;5026;51.494;11.974;2023-04-30T05:44:58;5.88;;;2.40;;
9970;SDS011;5026;51.494;11.974;2023-04-30T05:47:27;7.50;;;2.72;;
9970;SDS011;5026;51.494;11.974;2023-04-30T05:49:55;8.73;;;2.60;;
9970;SDS011;5026;51.494;11.974;2023-04-30T05:52:22;4.47;;;2.22;;
9970;SDS011;5026;51.494;11.974;2023-04-30T05:54:48;4.43;;;2.30;;
9970;SDS011;5026;51.494;11.974;2023-04-30T05:57:15;5.25;;;2.85;;
9970;SDS011;5026;51.494;11.974;2023-04-30T06:02:10;7.28;;;2.25;;
9970;SDS011;5026;51.494;11.974;2023-04-30T06:04:37;6.38;;;2.33;;
9970;SDS011;5026;51.494;11.974;2023-04-30T06:07:05;4.43;;;2.10;;
9970;SDS011;5026;51.494;11.974;2023-04-30T06:09:32;6.93;;;2.38;;
9970;SDS011;5026;51.494;11.974;2023-04-30T06:11:59;6.03;;;2.80;;
9970;SDS011;5026;51.494;11.974;2023-04-30T06:14:26;7.73;;;2.73;;
9970;SDS011;5026;51.494;11.974;2023-04-30T06:16:53;7.28;;;2.58;;
9970;SDS011;5026;51.494;11.974;2023-04-30T06:19:21;7.45;;;2.35;;
9970;SDS011;5026;51.494;11.974;2023-04-30T06:21:48;4.80;;;2.33;;
9970;SDS011;5026;51.494;11.974;2023-04-30T06:24:15;7.03;;;2.33;;
9970;SDS011;5026;51.494;11.974;2023-04-30T06:26:42;9.43;;;2.55;;
9970;SDS011;5026;51.494;11.974;2023-04-30T06:29:09;5.18;;;2.60;;
9970;SDS011;5026;51.494;11.974;2023-04-30T06:31:39;5.63;;;2.40;;
9970;SDS011;5026;51.494;11.974;2023-04-30T06:34:06;5.20;;;2.10;;
9970;SDS011;5026;51.494;11.974;2023-04-30T06:36:35;7.18;;;2.78;;
9970;SDS011;5026;51.494;11.974;2023-04-30T06:39:02;6.03;;;2.78;;
9970;SDS011;5026;51.494;11.974;2023-04-30T06:41:29;7.53;;;2.35;;
9970;SDS011;5026;51.494;11.974;2023-04-30T06:43:56;5.85;;;2.47;;
9970;SDS011;5026;51.494;11.974;2023-04-30T06:46:23;4.30;;;2.72;;
9970;SDS011;5026;51.494;11.974;2023-04-30T06:48:50;5.35;;;2.80;;
9970;SDS011;5026;51.494;11.974;2023-04-30T06:51:17;7.45;;;2.72;;
9970;SDS011;5026;51.494;11.974;2023-04-30T06:53:45;5.88;;;2.70;;
9970;SDS011;5026;51.494;11.974;2023-04-30T06:56:12;7.80;;;3.13;;
9970;SDS011;5026;51.494;11.974;2023-04-30T06:58:40;5.18;;;2.80;;
9970;SDS011;5026;51.494;11.974;2023-04-30T07:01:07;4.80;;;2.53;;
9970;SDS011;5026;51.494;11.974;2023-04-30T07:03:34;6.82;;;2.78;;
9970;SDS011;5026;51.494;11.974;2023-04-30T07:06:01;5.18;;;2.30;;
9970;SDS011;5026;51.494;11.974;2023-04-30T07:08:28;6.38;;;2.67;;
9970;SDS011;5026;51.494;11.974;2023-04-30T07:10:56;4.78;;;2.75;;
9970;SDS011;5026;51.494;11.974;2023-04-30T07:13:23;6.13;;;2.60;;
9970;SDS011;5026;51.494;11.974;2023-04-30T07:15:50;4.63;;;2.35;;
9970;SDS011;5026;51.494;11.974;2023-04-30T07:18:17;6.00;;;2.50;;
9970;SDS011;5026;51.494;11.974;2023-04-30T07:20:44;7.32;;;2.75;;
9970;SDS011;5026;51.494;11.974;2023-04-30T07:23:11;4.85;;;2.60;;
9970;SDS011;5026;51.494;11.974;2023-04-30T07:25:37;7.18;;;2.70;;
9970;SDS011;5026;51.494;11.974;2023-04-30T07:28:06;4.40;;;2.65;;
9970;SDS011;5026;51.494;11.974;2023-04-30T07:30:33;4.85;;;2.42;;
9970;SDS011;5026;51.494;11.974;2023-04-30T07:33:00;6.85;;;3.05;;
9970;SDS011;5026;51.494;11.974;2023-04-30T07:35:27;6.57;;;2.70;;
9970;SDS011;5026;51.494;11.974;2023-04-30T07:37:54;6.40;;;2.40;;
9970;SDS011;5026;51.494;11.974;2023-04-30T07:40:22;5.88;;;2.63;;
9970;SDS011;5026;51.494;11.974;2023-04-30T07:42:49;5.68;;;2.83;;
9970;SDS011;5026;51.494;11.974;2023-04-30T07:45:17;7.57;;;2.53;;
9970;SDS011;5026;51.494;11.974;2023-04-30T07:47:44;7.18;;;2.33;;
9970;SDS011;5026;51.494;11.974;2023-04-30T07:50:11;5.00;;;2.60;;
9970;SDS011;5026;51.494;11.974;2023-04-30T07:52:39;4.20;;;2.38;;
9970;SDS011;5026;51.494;11.974;2023-04-30T07:55:06;5.85;;;2.63;;
9970;SDS011;5026;51.494;11.974;2023-04-30T07:57:33;5.35;;;2.38;;
9970;SDS011;5026;51.494;11.974;2023-04-30T08:00:00;6.43;;;3.08;;
9970;SDS011;5026;51.494;11.974;2023-04-30T08:02:29;4.85;;;2.10;;
9970;SDS011;5026;51.494;11.974;2023-04-30T08:04:56;9.38;;;2.58;;
9970;SDS011;5026;51.494;11.974;2023-04-30T08:07:23;7.43;;;2.47;;
9970;SDS011;5026;51.494;11.974;2023-04-30T08:09:50;4.82;;;3.05;;
9970;SDS011;5026;51.494;11.974;2023-04-30T08:12:17;5.30;;;2.25;;
9970;SDS011;5026;51.494;11.974;2023-04-30T08:14:44;6.72;;;2.38;;
9970;SDS011;5026;51.494;11.974;2023-04-30T08:17:11;6.20;;;2.50;;
9970;SDS011;5026;51.494;11.974;2023-04-30T08:19:39;4.45;;;2.58;;
9970;SDS011;5026;51.494;11.974;2023-04-30T08:22:06;5.50;;;2.65;;
9970;SDS011;5026;51.494;11.974;2023-04-30T08:24:33;5.50;;;2.38;;
9970;SDS011;5026;51.494;11.974;2023-04-30T08:27:00;6.82;;;2.70;;
9970;SDS011;5026;51.494;11.974;2023-04-30T08:29:28;4.47;;;2.72;;
9970;SDS011;5026;51.494;11.974;2023-04-30T08:31:55;6.32;;;2.70;;
9970;SDS011;5026;51.494;11.974;2023-04-30T08:34:25;7.47;;;3.08;;
9970;SDS011;5026;51.494;11.974;2023-04-30T08:36:53;6.57;;;2.70;;
9970;SDS011;5026;51.494;11.974;2023-04-30T08:39:20;4.22;;;2.60;;
9970;SDS011;5026;51.494;11.974;2023-04-30T08:41:48;5.65;;;2.55;;
9970;SDS011;5026;51.494;11.974;2023-04-30T08:44:21;6.22;;;2.17;;
9970;SDS011;5026;51.494;11.974;2023-04-30T08:46:48;9.98;;;2.83;;
9970;SDS011;5026;51.494;11.974;2023-04-30T08:49:19;5.82;;;2.38;;
9970;SDS011;5026;51.494;11.974;2023-04-30T08:51:46;4.97;;;2.33;;
9970;SDS011;5026;51.494;11.974;2023-04-30T08:54:16;6.55;;;2.78;;
9970;SDS011;5026;51.494;11.974;2023-04-30T08:56:44;6.32;;;2.45;;
9970;SDS011;5026;51.494;11.974;2023-04-30T08:59:11;8.32;;;2.90;;
9970;SDS011;5026;51.494;11.974;2023-04-30T09:01:38;4.53;;;2.47;;
9970;SDS011;5026;51.494;11.974;2023-04-30T09:04:06;3.78;;;2.33;;
9970;SDS011;5026;51.494;11.974;2023-04-30T09:06:33;4.28;;;2.15;;
9970;SDS011;5026;51.494;11.974;2023-04-30T09:09:07;5.25;;;2.50;;
9970;SDS011;5026;51.494;11.974;2023-04-30T09:11:37;8.85;;;2.28;;
9970;SDS011;5026;51.494;11.974;2023-04-30T09:14:05;4.70;;;2.42;;
9970;SDS011;5026;51.494;11.974;2023-04-30T09:16:43;5.45;;;2.67;;
9970;SDS011;5026;51.494;11.974;2023-04-30T09:19:21;5.30;;;2.47;;
9970;SDS011;5026;51.494;11.974;2023-04-30T09:21:49;6.28;;;2.75;;
9970;SDS011;5026;51.494;11.974;2023-04-30T09:24:16;4.82;;;2.58;;
9970;SDS011;5026;51.494;11.974;2023-04-30T09:26:44;6.60;;;2.67;;
9970;SDS011;5026;51.494;11.974;2023-04-30T09:29:12;7.07;;;3.05;;
9970;SDS011;5026;51.494;11.974;2023-04-30T09:31:41;8.20;;;2.67;;
9970;SDS011;5026;51.494;11.974;2023-04-30T09:34:08;8.88;;;3.10;;
9970;SDS011;5026;51.494;11.974;2023-04-30T09:36:35;6.88;;;2.90;;
9970;SDS011;5026;51.494;11.974;2023-04-30T09:39:05;5.25;;;2.55;;
9970;SDS011;5026;51.494;11.974;2023-04-30T09:41:35;3.22;;;2.28;;
9970;SDS011;5026;51.494;11.974;2023-04-30T09:44:04;4.65;;;2.50;;
9970;SDS011;5026;51.494;11.974;2023-04-30T09:46:31;4.88;;;2.47;;
9970;SDS011;5026;51.494;11.974;2023-04-30T09:49:05;3.30;;;2.15;;
9970;SDS011;5026;51.494;11.974;2023-04-30T09:51:32;5.90;;;2.85;;
9970;SDS011;5026;51.494;11.974;2023-04-30T09:54:00;4.47;;;3.05;;
9970;SDS011;5026;51.494;11.974;2023-04-30T09:56:28;5.25;;;2.53;;
9970;SDS011;5026;51.494;11.974;2023-04-30T09:59:01;9.55;;;3.10;;
9970;SDS011;5026;51.494;11.974;2023-04-30T10:01:32;5.97;;;2.63;;
9970;SDS011;5026;51.494;11.974;2023-04-30T10:04:01;6.75;;;2.85;;
9970;SDS011;5026;51.494;11.974;2023-04-30T10:06:29;5.80;;;2.67;;
9970;SDS011;5026;51.494;11.974;2023-04-30T10:08:59;5.38;;;2.47;;
9970;SDS011;5026;51.494;11.974;2023-04-30T10:11:29;4.53;;;2.83;;
9970;SDS011;5026;51.494;11.974;2023-04-30T10:14:02;4.35;;;2.63;;
9970;SDS011;5026;51.494;11.974;2023-04-30T10:16:36;5.25;;;2.60;;
9970;SDS011;5026;51.494;11.974;2023-04-30T10:19:10;6.35;;;2.58;;
9970;SDS011;5026;51.494;11.974;2023-04-30T10:21:41;3.83;;;2.30;;
9970;SDS011;5026;51.494;11.974;2023-04-30T10:24:11;3.63;;;2.10;;
9970;SDS011;5026;51.494;11.974;2023-04-30T10:26:39;5.47;;;2.40;;
9970;SDS011;5026;51.494;11.974;2023-04-30T10:29:07;7.75;;;2.40;;
9970;SDS011;5026;51.494;11.974;2023-04-30T10:31:36;4.18;;;2.13;;
9970;SDS011;5026;51.494;11.974;2023-04-30T10:34:05;5.50;;;2.53;;
9970;SDS011;5026;51.494;11.974;2023-04-30T10:36:41;8.90;;;3.20;;
9970;SDS011;5026;51.494;11.974;2023-04-30T10:39:12;5.13;;;2.35;;
9970;SDS011;5026;51.494;11.974;2023-04-30T10:41:43;6.32;;;2.75;;
9970;SDS011;5026;51.494;11.974;2023-04-30T10:44:11;6.03;;;2.08;;
9970;SDS011;5026;51.494;11.974;2023-04-30T10:46:39;5.50;;;2.25;;
9970;SDS011;5026;51.494;11.974;2023-04-30T10:49:06;4.90;;;2.57;;
9970;SDS011;5026;51.494;11.974;2023-04-30T10:51:43;5.88;;;2.45;;
9970;SDS011;5026;51.494;11.974;2023-04-30T10:54:12;5.47;;;3.07;;
9970;SDS011;5026;51.494;11.974;2023-04-30T10:56:43;4.97;;;2.83;;
9970;SDS011;5026;51.494;11.974;2023-04-30T10:59:11;4.22;;;2.17;;
9970;SDS011;5026;51.494;11.974;2023-04-30T11:01:54;8.10;;;2.78;;
9970;SDS011;5026;51.494;11.974;2023-04-30T11:04:22;8.75;;;3.08;;
9970;SDS011;5026;51.494;11.974;2023-04-30T11:09:36;5.35;;;2.30;;
9970;SDS011;5026;51.494;11.974;2023-04-30T11:12:11;4.97;;;3.40;;
9970;SDS011;5026;51.494;11.974;2023-04-30T11:14:40;8.50;;;3.17;;
9970;SDS011;5026;51.494;11.974;2023-04-30T11:17:10;6.75;;;3.25;;
9970;SDS011;5026;51.494;11.974;2023-04-30T11:19:41;5.15;;;3.00;;
9970;SDS011;5026;51.494;11.974;2023-04-30T11:22:20;7.70;;;3.10;;
9970;SDS011;5026;51.494;11.974;2023-04-30T11:24:48;7.90;;;3.22;;
9970;SDS011;5026;51.494;11.974;2023-04-30T11:27:18;7.32;;;3.13;;
9970;SDS011;5026;51.494;11.974;2023-04-30T11:29:46;4.15;;;3.13;;
9970;SDS011;5026;51.494;11.974;2023-04-30T11:32:16;8.57;;;3.20;;
9970;SDS011;5026;51.494;11.974;2023-04-30T11:34:44;6.45;;;2.70;;
9970;SDS011;5026;51.494;11.974;2023-04-30T11:37:11;4.88;;;3.25;;
9970;SDS011;5026;51.494;11.974;2023-04-30T11:39:42;5.68;;;2.20;;
9970;SDS011;5026;51.494;11.974;2023-04-30T11:42:14;7.05;;;3.03;;
9970;SDS011;5026;51.494;11.974;2023-04-30T11:44:41;6.15;;;2.85;;
9970;SDS011;5026;51.494;11.974;2023-04-30T11:47:08;10.25;;;3.10;;
9970;SDS011;5026;51.494;11.974;2023-04-30T11:49:37;4.95;;;3.22;;
9970;SDS011;5026;51.494;11.974;2023-04-30T11:52:04;9.40;;;3.70;;
9970;SDS011;5026;51.494;11.974;2023-04-30T11:54:34;7.03;;;3.00;;
9970;SDS011;5026;51.494;11.974;2023-04-30T11:57:01;5.20;;;2.53;;
9970;SDS011;5026;51.494;11.974;2023-04-30T11:59:29;5.40;;;2.83;;
9970;SDS011;5026;51.494;11.974;2023-04-30T12:01:56;5.60;;;2.63;;
9970;SDS011;5026;51.494;11.974;2023-04-30T12:04:23;5.43;;;3.08;;
9970;SDS011;5026;51.494;11.974;2023-04-30T12:06:52;5.05;;;2.65;;
9970;SDS011;5026;51.494;11.974;2023-04-30T12:09:19;4.35;;;2.92;;
9970;SDS011;5026;51.494;11.974;2023-04-30T12:11:46;4.95;;;2.22;;
9970;SDS011;5026;51.494;11.974;2023-04-30T12:14:14;5.18;;;2.72;;
9970;SDS011;5026;51.494;11.974;2023-04-30T12:16:41;6.78;;;2.75;;
9970;SDS011;5026;51.494;11.974;2023-04-30T12:19:13;5.40;;;2.72;;
9970;SDS011;5026;51.494;11.974;2023-04-30T12:21:41;4.88;;;2.50;;
9970;SDS011;5026;51.494;11.974;2023-04-30T12:24:12;5.15;;;2.80;;
9970;SDS011;5026;51.494;11.974;2023-04-30T12:26:39;9.27;;;3.05;;
9970;SDS011;5026;51.494;11.974;2023-04-30T12:29:07;6.32;;;2.80;;
9970;SDS011;5026;51.494;11.974;2023-04-30T12:31:35;6.40;;;2.95;;
9970;SDS011;5026;51.494;11.974;2023-04-30T12:34:03;6.60;;;2.42;;
9970;SDS011;5026;51.494;11.974;2023-04-30T12:36:30;5.85;;;2.75;;
9970;SDS011;5026;51.494;11.974;2023-04-30T12:39:01;6.65;;;2.50;;
9970;SDS011;5026;51.494;11.974;2023-04-30T12:41:36;4.22;;;2.78;;
9970;SDS011;5026;51.494;11.974;2023-04-30T12:44:18;5.70;;;2.70;;
9970;SDS011;5026;51.494;11.974;2023-04-30T12:46:46;5.18;;;2.30;;
9970;SDS011;5026;51.494;11.974;2023-04-30T12:49:23;6.05;;;2.40;;
9970;SDS011;5026;51.494;11.974;2023-04-30T12:51:55;5.30;;;2.30;;
9970;SDS011;5026;51.494;11.974;2023-04-30T12:54:24;3.35;;;1.90;;
9970;SDS011;5026;51.494;11.974;2023-04-30T12:57:01;6.95;;;2.28;;
9970;SDS011;5026;51.494;11.974;2023-04-30T12:59:29;3.92;;;1.90;;
9970;SDS011;5026;51.494;11.974;2023-04-30T13:02:04;3.35;;;1.83;;
9970;SDS011;5026;51.494;11.974;2023-04-30T13:04:32;5.30;;;2.13;;
9970;SDS011;5026;51.494;11.974;2023-04-30T13:07:00;4.63;;;2.80;;
9970;SDS011;5026;51.494;11.974;2023-04-30T13:09:27;7.65;;;2.53;;
9970;SDS011;5026;51.494;11.974;2023-04-30T13:11:53;2.90;;;2.30;;
9970;SDS011;5026;51.494;11.974;2023-04-30T13:14:22;5.95;;;2.30;;
9970;SDS011;5026;51.494;11.974;2023-04-30T13:16:49;4.40;;;2.60;;
9970;SDS011;5026;51.494;11.974;2023-04-30T13:19:16;8.07;;;3.10;;
9970;SDS011;5026;51.494;11.974;2023-04-30T13:21:43;11.63;;;2.65;;
9970;SDS011;5026;51.494;11.974;2023-04-30T13:24:10;5.88;;;2.13;;
9970;SDS011;5026;51.494;11.974;2023-04-30T13:26:37;3.03;;;2.08;;
9970;SDS011;5026;51.494;11.974;2023-04-30T13:29:04;3.25;;;2.15;;
9970;SDS011;5026;51.494;11.974;2023-04-30T13:31:33;6.38;;;2.70;;
9970;SDS011;5026;51.494;11.974;2023-04-30T13:34:00;4.43;;;2.13;;
9970;SDS011;5026;51.494;11.974;2023-04-30T13:36:27;4.05;;;2.08;;
9970;SDS011;5026;51.494;11.974;2023-04-30T13:38:54;3.25;;;1.90;;
9970;SDS011;5026;51.494;11.974;2023-04-30T13:41:22;3.80;;;2.17;;
9970;SDS011;5026;51.494;11.974;2023-04-30T13:43:50;4.63;;;2.00;;
9970;SDS011;5026;51.494;11.974;2023-04-30T13:46:17;6.40;;;2.15;;
9970;SDS011;5026;51.494;11.974;2023-04-30T13:48:45;4.93;;;2.28;;
9970;SDS011;5026;51.494;11.974;2023-04-30T13:51:15;3.13;;;2.15;;
9970;SDS011;5026;51.494;11.974;2023-04-30T13:53:42;3.88;;;2.25;;
9970;SDS011;5026;51.494;11.974;2023-04-30T13:56:10;2.95;;;2.03;;
9970;SDS011;5026;51.494;11.974;2023-04-30T13:58:37;3.20;;;1.83;;
9970;SDS011;5026;51.494;11.974;2023-04-30T14:01:04;4.35;;;2.03;;
9970;SDS011;5026;51.494;11.974;2023-04-30T14:03:32;3.78;;;2.05;;
9970;SDS011;5026;51.494;11.974;2023-04-30T14:06:00;3.80;;;2.05;;
9970;SDS011;5026;51.494;11.974;2023-04-30T14:08:27;7.35;;;2.05;;
9970;SDS011;5026;51.494;11.974;2023-04-30T14:10:55;5.25;;;1.92;;
9970;SDS011;5026;51.494;11.974;2023-04-30T14:13:23;3.47;;;2.20;;
9970;SDS011;5026;51.494;11.974;2023-04-30T14:15:50;8.88;;;2.33;;
9970;SDS011;5026;51.494;11.974;2023-04-30T14:18:18;6.38;;;2.28;;
9970;SDS011;5026;51.494;11.974;2023-04-30T14:20:46;3.38;;;1.88;;
9970;SDS011;5026;51.494;11.974;2023-04-30T14:23:15;4.45;;;2.28;;
9970;SDS011;5026;51.494;11.974;2023-04-30T14:25:42;2.92;;;2.10;;
9970;SDS011;5026;51.494;11.974;2023-04-30T14:28:09;6.28;;;2.55;;
9970;SDS011;5026;51.494;11.974;2023-04-30T14:30:37;3.88;;;2.00;;
9970;SDS011;5026;51.494;11.974;2023-04-30T14:33:04;4.65;;;2.40;;
9970;SDS011;5026;51.494;11.974;2023-04-30T14:35:31;3.85;;;1.98;;
9970;SDS011;5026;51.494;11.974;2023-04-30T14:37:58;2.55;;;2.00;;
9970;SDS011;5026;51.494;11.974;2023-04-30T14:40:26;4.38;;;1.80;;
9970;SDS011;5026;51.494;11.974;2023-04-30T14:42:53;2.55;;;1.75;;
9970;SDS011;5026;51.494;11.974;2023-04-30T14:45:20;5.53;;;2.35;;
9970;SDS011;5026;51.494;11.974;2023-04-30T14:47:47;3.47;;;1.90;;
9970;SDS011;5026;51.494;11.974;2023-04-30T14:50:14;4.28;;;1.95;;
9970;SDS011;5026;51.494;11.974;2023-04-30T14:52:41;4.47;;;2.05;;
9970;SDS011;5026;51.494;11.974;2023-04-30T14:55:08;4.03;;;1.92;;
9970;SDS011;5026;51.494;11.974;2023-04-30T14:57:36;2.42;;;1.52;;
9970;SDS011;5026;51.494;11.974;2023-04-30T15:00:04;3.83;;;1.88;;
9970;SDS011;5026;51.494;11.974;2023-04-30T15:02:31;3.55;;;1.92;;
9970;SDS011;5026;51.494;11.974;2023-04-30T15:04:58;5.63;;;2.08;;
9970;SDS011;5026;51.494;11.974;2023-04-30T15:07:25;5.40;;;2.05;;
9970;SDS011;5026;51.494;11.974;2023-04-30T15:09:52;5.00;;;2.08;;
9970;SDS011;5026;51.494;11.974;2023-04-30T15:12:20;3.63;;;1.70;;
9970;SDS011;5026;51.494;11.974;2023-04-30T15:14:48;4.05;;;1.80;;